createdAt,value
2023-08-17T00:00:21.226Z,76.42
2023-08-17T00:01:52.944Z,76.08
2023-08-17T00:03:24.801Z,75.50
2023-08-17T00:04:56.490Z,74.93
2023-08-17T00:06:29.594Z,74.96
2023-08-17T00:08:01.256Z,76.41
2023-08-17T00:09:33.199Z,74.95
2023-08-17T00:11:04.820Z,75.48
2023-08-17T00:12:36.466Z,76.57
2023-08-17T00:14:08.132Z,76.64
2023-08-17T00:15:40.196Z,76.51
2023-08-17T00:17:11.916Z,77.23
2023-08-17T00:18:43.551Z,76.85
2023-08-17T00:20:15.393Z,76.72
2023-08-17T00:21:48.411Z,76.51
2023-08-17T00:23:21.792Z,75.88
2023-08-17T00:24:53.504Z,77.14
2023-08-17T00:26:26.019Z,77.71
2023-08-17T00:27:57.846Z,77.80
2023-08-17T00:29:29.559Z,76.67
2023-08-17T00:31:01.228Z,76.35
2023-08-17T00:32:32.906Z,76.72
2023-08-17T00:34:04.794Z,77.05
2023-08-17T00:35:36.423Z,77.89
2023-08-17T00:37:09.671Z,78.95
2023-08-17T00:38:43.964Z,77.89
2023-08-17T00:40:15.777Z,77.93
2023-08-17T00:41:47.570Z,77.98
2023-08-17T00:43:19.215Z,79.33
2023-08-17T00:44:50.839Z,78.70
2023-08-17T00:46:24.168Z,79.86
2023-08-17T00:47:56.321Z,79.27
2023-08-17T00:49:28.253Z,78.94
2023-08-17T00:50:59.885Z,78.73
2023-08-17T00:52:33.702Z,78.42
2023-08-17T00:54:05.833Z,77.27
2023-08-17T00:55:37.519Z,78.77
2023-08-17T00:57:09.751Z,77.64
2023-08-17T00:58:41.639Z,77.90
2023-08-17T01:00:15.231Z,78.95
2023-08-17T01:01:49.024Z,79.37
2023-08-17T01:03:20.767Z,79.49
2023-08-17T01:04:52.873Z,79.19
2023-08-17T01:06:24.583Z,78.31
2023-08-17T01:07:57.782Z,78.55
2023-08-17T01:09:29.447Z,78.13
2023-08-17T01:11:06.343Z,78.19
2023-08-17T01:12:42.600Z,78.16
2023-08-17T01:14:16.895Z,77.61
2023-08-17T01:15:51.370Z,77.99
2023-08-17T01:17:25.646Z,80.14
2023-08-17T01:18:58.970Z,80.09
2023-08-17T01:20:30.711Z,79.11
2023-08-17T01:22:04.781Z,79.63
2023-08-17T01:23:37.805Z,80.01
2023-08-17T01:25:09.736Z,80.40
2023-08-17T01:26:41.420Z,80.66
2023-08-17T01:28:13.106Z,81.34
2023-08-17T01:29:44.803Z,79.45
2023-08-17T01:31:21.040Z,79.70
2023-08-17T01:32:59.268Z,79.59
2023-08-17T01:34:30.950Z,78.54
2023-08-17T01:36:05.965Z,78.23
2023-08-17T01:37:37.584Z,78.24
2023-08-17T01:39:13.564Z,78.98
2023-08-17T01:40:46.010Z,79.03
2023-08-17T01:42:17.665Z,79.24
2023-08-17T01:43:49.350Z,79.46
2023-08-17T01:45:21.022Z,79.04
2023-08-17T01:46:52.753Z,79.40
2023-08-17T01:48:24.448Z,78.85
2023-08-17T01:50:00.580Z,78.38
2023-08-17T01:51:32.252Z,78.81
2023-08-17T01:53:04.263Z,78.99
2023-08-17T01:54:37.351Z,79.13
2023-08-17T01:56:09.453Z,79.79
2023-08-17T01:57:42.332Z,78.91
2023-08-17T01:59:14.226Z,79.80
2023-08-17T02:00:45.914Z,80.27
2023-08-17T02:02:18.357Z,79.72
2023-08-17T02:05:21.843Z,79.82
2023-08-17T02:06:53.592Z,79.64
2023-08-17T02:08:25.256Z,79.71
2023-08-17T02:09:58.313Z,80.53
2023-08-17T02:11:29.967Z,80.64
2023-08-17T02:13:12.411Z,80.18
2023-08-17T02:14:49.483Z,80.57
2023-08-17T02:16:21.186Z,80.47
2023-08-17T02:17:53.011Z,80.78
2023-08-17T02:19:24.731Z,80.40
2023-08-17T02:20:56.531Z,79.82
2023-08-17T02:22:31.160Z,80.27
2023-08-17T02:24:02.841Z,80.79
2023-08-17T02:25:38.501Z,80.85
2023-08-17T02:27:10.376Z,80.39
2023-08-17T02:28:42.066Z,80.47
2023-08-17T02:30:14.698Z,80.93
2023-08-17T02:31:47.573Z,80.77
2023-08-17T02:33:19.330Z,80.99
2023-08-17T02:34:51.054Z,81.24
2023-08-17T02:36:22.800Z,80.30
2023-08-17T02:37:54.671Z,79.90
2023-08-17T02:39:26.938Z,80.07
2023-08-17T02:40:59.939Z,79.74
2023-08-17T02:42:31.640Z,79.36
2023-08-17T02:44:03.592Z,79.87
2023-08-17T02:45:35.275Z,79.39
2023-08-17T02:47:07.055Z,79.51
2023-08-17T02:48:38.699Z,80.37
2023-08-17T02:50:10.965Z,80.11
2023-08-17T02:51:42.597Z,79.68
2023-08-17T02:53:14.238Z,80.72
2023-08-17T02:54:45.950Z,80.58
2023-08-17T02:56:18.972Z,81.09
2023-08-17T02:57:50.633Z,81.90
2023-08-17T02:59:22.464Z,81.57
2023-08-17T03:00:54.847Z,81.31
2023-08-17T03:02:26.611Z,81.29
2023-08-17T03:03:58.296Z,80.94
2023-08-17T03:05:30.014Z,80.65
2023-08-17T03:07:01.866Z,81.20
2023-08-17T03:08:33.477Z,80.53
2023-08-17T03:10:06.076Z,81.11
2023-08-17T03:11:39.075Z,82.18
2023-08-17T03:13:10.854Z,82.96
2023-08-17T03:14:42.459Z,82.45
2023-08-17T03:16:14.161Z,82.10
2023-08-17T03:17:45.938Z,82.69
2023-08-17T03:19:18.622Z,83.52
2023-08-17T03:20:50.385Z,82.83
2023-08-17T03:22:22.113Z,82.33
2023-08-17T03:23:53.855Z,82.88
2023-08-17T03:25:25.576Z,83.20
2023-08-17T03:26:58.570Z,83.44
2023-08-17T03:28:30.288Z,83.12
2023-08-17T03:30:01.975Z,81.97
2023-08-17T03:31:33.619Z,82.76
2023-08-17T03:33:05.578Z,82.27
2023-08-17T03:34:37.236Z,82.19
2023-08-17T03:36:09.231Z,84.01
2023-08-17T03:37:40.897Z,83.92
2023-08-17T03:39:12.627Z,84.66
2023-08-17T03:40:44.301Z,84.22
2023-08-17T03:42:17.325Z,83.76
2023-08-17T03:43:49.053Z,83.94
2023-08-17T03:45:20.715Z,83.75
2023-08-17T03:46:52.459Z,83.71
2023-08-17T03:48:24.104Z,82.88
2023-08-17T03:49:56.071Z,82.61
2023-08-17T03:51:27.861Z,81.97
2023-08-17T03:52:59.538Z,82.24
2023-08-17T03:54:31.166Z,83.67
2023-08-17T03:56:03.253Z,83.68
2023-08-17T03:57:39.071Z,83.55
2023-08-17T03:59:11.295Z,82.74
2023-08-17T04:00:43.449Z,82.07
2023-08-17T04:02:15.109Z,82.51
2023-08-17T04:03:46.908Z,82.30
2023-08-17T04:05:18.995Z,82.34
2023-08-17T04:06:50.798Z,83.05
2023-08-17T04:08:22.604Z,82.41
2023-08-17T04:09:54.403Z,82.18
2023-08-17T04:11:26.036Z,83.13
2023-08-17T04:12:59.084Z,83.81
2023-08-17T04:14:30.753Z,84.80
2023-08-17T04:16:02.399Z,85.33
2023-08-17T04:17:34.240Z,84.41
2023-08-17T04:19:06.134Z,83.68
2023-08-17T04:20:37.868Z,83.40
2023-08-17T04:22:09.665Z,83.24
2023-08-17T04:23:41.281Z,82.96
2023-08-17T04:25:13.857Z,82.13
2023-08-17T04:26:45.524Z,83.42
2023-08-17T04:28:18.558Z,82.62
2023-08-17T04:29:50.209Z,82.06
2023-08-17T04:31:21.951Z,82.46
2023-08-17T04:32:53.988Z,83.31
2023-08-17T04:34:25.991Z,82.84
2023-08-17T04:35:57.692Z,82.94
2023-08-17T04:37:29.509Z,82.58
2023-08-17T04:39:01.233Z,81.88
2023-08-17T04:40:33.224Z,84.13
2023-08-17T04:42:05.414Z,84.78
2023-08-17T04:43:38.401Z,83.90
2023-08-17T04:45:10.323Z,84.75
2023-08-17T04:46:42.012Z,83.41
2023-08-17T04:48:13.709Z,83.92
2023-08-17T04:49:45.354Z,83.63
2023-08-17T04:51:17.142Z,83.33
2023-08-17T04:52:48.814Z,83.39
2023-08-17T04:54:20.441Z,84.33
2023-08-17T04:55:52.376Z,85.02
2023-08-17T04:57:24.375Z,85.04
2023-08-17T04:58:57.625Z,84.93
2023-08-17T05:00:29.706Z,85.04
2023-08-17T05:02:01.344Z,84.62
2023-08-17T05:03:34.012Z,85.15
2023-08-17T05:05:11.125Z,84.11
2023-08-17T05:06:43.739Z,84.16
2023-08-17T05:08:15.420Z,84.92
2023-08-17T05:09:47.167Z,84.37
2023-08-17T05:11:18.929Z,83.71
2023-08-17T05:12:50.656Z,85.53
2023-08-17T05:14:23.694Z,84.16
2023-08-17T05:15:55.369Z,86.55
2023-08-17T05:17:27.362Z,86.93
2023-08-17T05:19:00.575Z,88.10
2023-08-17T05:20:34.297Z,85.03
2023-08-17T05:22:06.670Z,86.92
2023-08-17T05:23:38.329Z,85.99
2023-08-17T05:25:10.254Z,86.23
2023-08-17T05:26:41.963Z,85.53
2023-08-17T05:28:13.589Z,84.85
2023-08-17T05:29:46.560Z,84.28
2023-08-17T05:31:18.247Z,83.23
2023-08-17T05:32:49.996Z,84.06
2023-08-17T05:34:21.694Z,86.16
2023-08-17T05:35:55.004Z,84.20
2023-08-17T05:37:26.890Z,84.55
2023-08-17T05:38:58.728Z,83.22
2023-08-17T05:40:31.174Z,83.06
2023-08-17T05:42:03.081Z,83.39
2023-08-17T05:43:34.699Z,83.69
2023-08-17T05:45:09.204Z,82.98
2023-08-17T05:46:40.866Z,81.97
2023-08-17T05:48:12.578Z,82.10
2023-08-17T05:49:44.215Z,81.69
2023-08-17T05:51:15.852Z,80.86
2023-08-17T05:52:50.053Z,81.01
2023-08-17T05:54:21.683Z,80.64
2023-08-17T05:55:56.442Z,81.00
2023-08-17T05:57:28.319Z,80.88
2023-08-17T05:59:00.315Z,81.39
2023-08-17T06:00:33.386Z,82.14
2023-08-17T06:02:05.376Z,80.71
2023-08-17T06:03:37.219Z,81.72
2023-08-17T06:05:10.393Z,81.13
2023-08-17T06:06:42.087Z,80.54
2023-08-17T06:08:13.817Z,80.90
2023-08-17T06:09:45.439Z,80.86
2023-08-17T06:11:17.088Z,81.58
2023-08-17T06:12:48.732Z,80.59
2023-08-17T06:14:20.433Z,79.90
2023-08-17T06:15:53.504Z,81.52
2023-08-17T06:17:25.394Z,81.47
2023-08-17T06:18:57.381Z,81.76
2023-08-17T06:20:29.091Z,81.78
2023-08-17T06:22:00.724Z,82.01
2023-08-17T06:23:32.343Z,82.30
2023-08-17T06:25:06.093Z,82.34
2023-08-17T06:26:37.734Z,80.68
2023-08-17T06:28:09.399Z,81.05
2023-08-17T06:29:41.040Z,81.46
2023-08-17T06:31:16.921Z,81.59
2023-08-17T06:32:48.719Z,81.66
2023-08-17T06:34:20.418Z,83.85
2023-08-17T06:35:52.156Z,82.98
2023-08-17T06:37:23.819Z,84.10
2023-08-17T06:38:55.458Z,82.48
2023-08-17T06:40:27.259Z,83.13
2023-08-17T06:41:58.873Z,82.29
2023-08-17T06:43:33.390Z,82.67
2023-08-17T06:45:06.497Z,81.96
2023-08-17T06:46:39.526Z,81.53
2023-08-17T06:48:11.263Z,80.61
2023-08-17T06:49:43.362Z,80.71
2023-08-17T06:51:15.020Z,79.90
2023-08-17T06:52:46.696Z,78.55
2023-08-17T06:54:18.351Z,78.10
2023-08-17T06:55:50.041Z,78.55
2023-08-17T06:57:22.958Z,78.58
2023-08-17T06:58:54.618Z,77.97
2023-08-17T07:00:26.379Z,78.02
2023-08-17T07:01:59.998Z,77.98
2023-08-17T07:03:31.812Z,78.32
2023-08-17T07:05:06.582Z,79.21
2023-08-17T07:06:38.258Z,78.59
2023-08-17T07:08:12.499Z,79.05
2023-08-17T07:09:44.213Z,79.29
2023-08-17T07:11:15.827Z,79.25
2023-08-17T07:12:47.872Z,79.06
2023-08-17T07:14:21.823Z,78.48
2023-08-17T07:15:55.128Z,78.76
2023-08-17T07:17:28.603Z,78.38
2023-08-17T07:19:00.541Z,78.05
2023-08-17T07:20:35.385Z,77.44
2023-08-17T07:22:10.150Z,77.40
2023-08-17T07:23:46.002Z,77.38
2023-08-17T07:25:17.831Z,77.72
2023-08-17T07:26:49.550Z,76.98
2023-08-17T07:28:21.328Z,76.30
2023-08-17T07:29:55.498Z,76.28
2023-08-17T07:31:27.889Z,77.69
2023-08-17T07:33:00.935Z,77.30
2023-08-17T07:34:32.594Z,78.05
2023-08-17T07:36:05.634Z,76.78
2023-08-17T07:37:37.380Z,78.10
2023-08-17T07:39:09.304Z,78.53
2023-08-17T07:40:40.999Z,79.17
2023-08-17T07:42:12.682Z,78.67
2023-08-17T07:43:44.506Z,79.71
2023-08-17T07:45:16.687Z,79.09
2023-08-17T07:46:48.335Z,79.72
2023-08-17T07:48:21.740Z,79.66
2023-08-17T07:49:53.454Z,78.99
2023-08-17T07:51:25.139Z,78.55
2023-08-17T07:52:56.816Z,78.51
2023-08-17T07:54:28.898Z,78.74
2023-08-17T07:56:00.542Z,78.69
2023-08-17T07:57:32.553Z,78.97
2023-08-17T07:59:04.684Z,78.32
2023-08-17T08:00:36.437Z,79.48
2023-08-17T08:02:08.101Z,79.31
2023-08-17T08:03:41.143Z,78.95
2023-08-17T08:05:15.195Z,78.95
2023-08-17T08:06:47.163Z,79.17
2023-08-17T08:08:18.853Z,79.18
2023-08-17T08:09:50.510Z,79.21
2023-08-17T08:11:22.822Z,78.71
2023-08-17T08:12:54.656Z,78.63
2023-08-17T08:14:26.449Z,78.53
2023-08-17T08:15:59.429Z,78.82
2023-08-17T08:17:31.566Z,77.96
2023-08-17T08:19:05.177Z,77.33
2023-08-17T08:20:37.021Z,77.81
2023-08-17T08:22:08.720Z,76.81
2023-08-17T08:23:40.432Z,76.02
2023-08-17T08:25:12.232Z,77.23
2023-08-17T08:26:43.917Z,75.68
2023-08-17T08:28:15.827Z,76.23
2023-08-17T08:29:47.750Z,76.44
2023-08-17T08:31:19.553Z,76.27
2023-08-17T08:32:51.258Z,76.25
2023-08-17T08:34:24.421Z,75.76
2023-08-17T08:35:56.085Z,75.40
2023-08-17T08:37:30.521Z,74.69
2023-08-17T08:39:02.321Z,74.62
2023-08-17T08:40:34.021Z,73.81
2023-08-17T08:42:05.779Z,73.25
2023-08-17T08:43:37.537Z,73.40
2023-08-17T08:45:10.048Z,73.29
2023-08-17T08:46:43.164Z,73.42
2023-08-17T08:48:15.046Z,72.96
2023-08-17T08:49:51.538Z,71.90
2023-08-17T08:51:26.250Z,71.93
2023-08-17T08:52:59.775Z,73.14
2023-08-17T08:54:31.529Z,72.07
2023-08-17T08:56:03.392Z,72.50
2023-08-17T08:57:35.160Z,70.48
2023-08-17T08:59:07.009Z,71.20
2023-08-17T09:00:38.871Z,68.93
2023-08-17T09:02:13.645Z,70.00
2023-08-17T09:03:45.867Z,67.31
2023-08-17T09:05:19.333Z,69.87
2023-08-17T09:06:51.137Z,69.63
2023-08-17T09:08:26.535Z,68.33
2023-08-17T09:09:58.231Z,70.22
2023-08-17T09:11:33.315Z,68.15
2023-08-17T09:13:05.010Z,69.77
2023-08-17T09:14:38.259Z,68.60
2023-08-17T09:16:12.464Z,69.02
2023-08-17T09:17:44.429Z,68.91
2023-08-17T09:19:16.228Z,66.86
2023-08-17T09:20:49.691Z,67.63
2023-08-17T09:22:25.404Z,68.61
2023-08-17T09:24:00.536Z,66.22
2023-08-17T09:25:32.926Z,66.46
2023-08-17T09:27:10.840Z,67.00
2023-08-17T09:28:42.735Z,64.92
2023-08-17T09:31:50.830Z,65.73
2023-08-17T09:33:22.842Z,64.72
2023-08-17T09:34:54.520Z,66.70
2023-08-17T09:36:27.609Z,65.41
2023-08-17T09:37:59.460Z,65.56
2023-08-17T09:39:31.125Z,65.94
2023-08-17T09:41:03.122Z,66.87
2023-08-17T09:42:35.762Z,66.51
2023-08-17T09:44:07.778Z,66.92
2023-08-17T09:45:40.044Z,67.33
2023-08-17T09:47:11.698Z,67.61
2023-08-17T09:48:44.657Z,64.69
2023-08-17T09:50:16.506Z,63.96
2023-08-17T09:51:49.670Z,64.22
2023-08-17T09:53:21.376Z,65.12
2023-08-17T09:54:53.411Z,63.66
2023-08-17T09:56:25.131Z,64.49
2023-08-17T09:57:56.838Z,62.79
2023-08-17T09:59:28.570Z,63.05
2023-08-17T10:01:00.314Z,63.18
2023-08-17T10:02:32.065Z,62.36
2023-08-17T10:04:04.089Z,60.88
2023-08-17T10:05:38.286Z,61.67
2023-08-17T10:07:11.280Z,61.44
2023-08-17T10:08:45.138Z,60.58
2023-08-17T10:10:17.808Z,59.85
2023-08-17T10:11:49.476Z,61.23
2023-08-17T10:13:25.030Z,59.10
2023-08-17T10:14:59.071Z,61.03
2023-08-17T10:16:34.626Z,60.88
2023-08-17T10:18:15.651Z,60.49
2023-08-17T10:19:53.197Z,59.83
2023-08-17T10:21:28.549Z,59.73
2023-08-17T10:23:06.318Z,60.53
2023-08-17T10:24:39.435Z,61.30
2023-08-17T10:26:11.354Z,62.57
2023-08-17T10:27:43.152Z,63.55
2023-08-17T10:29:17.432Z,62.67
2023-08-17T10:30:49.550Z,62.31
2023-08-17T10:32:22.816Z,59.73
2023-08-17T10:33:58.279Z,60.08
2023-08-17T10:35:30.096Z,59.72
2023-08-17T10:37:01.776Z,59.46
2023-08-17T10:38:34.847Z,58.81
2023-08-17T10:40:07.777Z,57.79
2023-08-17T10:41:47.432Z,59.76
2023-08-17T10:44:54.807Z,61.62
2023-08-17T10:46:35.555Z,58.42
2023-08-17T10:48:27.067Z,57.62
2023-08-17T10:49:59.440Z,58.64
2023-08-17T10:51:31.092Z,58.38
2023-08-17T10:53:05.215Z,57.92
2023-08-17T10:54:39.232Z,57.24
2023-08-17T10:56:15.008Z,56.67
2023-08-17T10:57:46.643Z,57.85
2023-08-17T10:59:25.971Z,56.20
2023-08-17T11:00:58.040Z,56.28
2023-08-17T11:02:35.606Z,56.55
2023-08-17T11:04:12.443Z,55.64
2023-08-17T11:05:45.270Z,55.17
2023-08-17T11:07:17.609Z,54.89
2023-08-17T11:08:53.068Z,53.76
2023-08-17T11:10:35.884Z,53.42
2023-08-17T11:12:07.642Z,53.88
2023-08-17T11:13:39.956Z,53.95
2023-08-17T11:15:11.687Z,55.32
2023-08-17T11:16:43.447Z,52.54
2023-08-17T11:18:15.194Z,54.23
2023-08-17T11:19:46.839Z,52.94
2023-08-17T11:21:20.117Z,54.69
2023-08-17T11:22:52.345Z,52.97
2023-08-17T11:24:29.361Z,52.13
2023-08-17T11:26:02.613Z,53.81
2023-08-17T11:27:38.952Z,53.79
2023-08-17T11:29:11.101Z,54.78
2023-08-17T11:32:19.399Z,54.20
2023-08-17T11:35:27.086Z,53.28
2023-08-17T11:36:58.915Z,53.24
2023-08-17T11:38:31.231Z,52.80
2023-08-17T11:40:03.288Z,52.53
2023-08-17T11:41:36.375Z,52.24
2023-08-17T11:43:09.413Z,54.95
2023-08-17T11:44:41.639Z,54.05
2023-08-17T11:46:16.084Z,52.82
2023-08-17T11:47:48.057Z,52.18
2023-08-17T11:49:19.729Z,52.44
2023-08-17T11:50:51.876Z,52.75
2023-08-17T11:52:23.509Z,53.98
2023-08-17T11:53:55.232Z,53.86
2023-08-17T11:55:27.284Z,54.18
2023-08-17T11:57:05.352Z,53.21
2023-08-17T11:58:40.816Z,53.04
2023-08-17T12:00:18.585Z,54.28
2023-08-17T12:01:50.458Z,53.47
2023-08-17T12:03:22.216Z,54.40
2023-08-17T12:04:54.214Z,54.45
2023-08-17T12:06:25.956Z,56.69
2023-08-17T12:07:57.630Z,55.90
2023-08-17T12:09:29.461Z,55.76
2023-08-17T12:11:01.641Z,56.93
2023-08-17T12:12:37.661Z,57.23
2023-08-17T12:14:10.956Z,56.82
2023-08-17T12:15:42.727Z,57.88
2023-08-17T12:17:15.697Z,56.61
2023-08-17T12:18:48.732Z,56.79
2023-08-17T12:20:21.084Z,58.40
2023-08-17T12:21:52.808Z,56.39
2023-08-17T12:23:24.540Z,56.60
2023-08-17T12:24:56.192Z,56.67
2023-08-17T12:26:28.763Z,56.83
2023-08-17T12:28:02.205Z,57.67
2023-08-17T12:29:33.945Z,57.23
2023-08-17T12:31:05.624Z,57.47
2023-08-17T12:32:37.977Z,58.79
2023-08-17T12:34:09.764Z,60.47
2023-08-17T12:35:41.493Z,58.18
2023-08-17T12:37:13.592Z,57.83
2023-08-17T12:38:46.278Z,59.16
2023-08-17T12:40:17.902Z,57.11
2023-08-17T12:41:49.742Z,57.25
2023-08-17T12:43:22.788Z,59.14
2023-08-17T12:44:54.396Z,58.69
2023-08-17T12:46:26.253Z,60.24
2023-08-17T12:47:57.985Z,59.84
2023-08-17T12:49:29.659Z,59.29
2023-08-17T12:51:02.799Z,59.69
2023-08-17T12:52:35.553Z,59.85
2023-08-17T12:54:07.245Z,60.55
2023-08-17T12:55:38.875Z,59.93
2023-08-17T12:57:13.138Z,60.47
2023-08-17T12:58:46.400Z,59.70
2023-08-17T13:00:18.386Z,60.48
2023-08-17T13:01:50.123Z,59.03
2023-08-17T13:03:21.925Z,58.05
2023-08-17T13:04:53.915Z,58.02
2023-08-17T13:06:29.007Z,58.10
2023-08-17T13:08:05.740Z,59.48
2023-08-17T13:09:37.422Z,59.64
2023-08-17T13:11:09.111Z,59.47
2023-08-17T13:12:40.770Z,62.25
2023-08-17T13:14:15.297Z,60.11
2023-08-17T13:15:47.102Z,60.07
2023-08-17T13:17:18.738Z,59.22
2023-08-17T13:18:50.520Z,62.11
2023-08-17T13:20:23.022Z,60.04
2023-08-17T13:21:54.903Z,59.48
2023-08-17T13:23:26.612Z,60.06
2023-08-17T13:24:58.368Z,60.38
2023-08-17T13:26:30.347Z,59.03
2023-08-17T13:28:02.032Z,59.29
2023-08-17T13:29:36.739Z,60.83
2023-08-17T13:31:23.834Z,59.87
2023-08-17T13:32:56.877Z,62.38
2023-08-17T13:34:28.552Z,60.72
2023-08-17T13:36:00.322Z,61.90
2023-08-17T13:37:32.350Z,62.98
2023-08-17T13:39:04.502Z,60.47
2023-08-17T13:40:37.439Z,60.08
2023-08-17T13:42:09.191Z,61.40
2023-08-17T13:43:41.203Z,59.60
2023-08-17T13:45:14.274Z,59.15
2023-08-17T13:46:45.880Z,59.58
2023-08-17T13:48:17.633Z,60.34
2023-08-17T13:49:49.302Z,61.78
2023-08-17T13:51:21.000Z,62.08
2023-08-17T13:52:52.657Z,63.75
2023-08-17T13:54:24.452Z,64.99
2023-08-17T13:55:56.315Z,65.41
2023-08-17T13:57:27.952Z,64.79
2023-08-17T13:58:59.739Z,63.89
2023-08-17T14:00:33.296Z,60.30
2023-08-17T14:02:05.085Z,58.20
2023-08-17T14:03:37.681Z,59.51
2023-08-17T14:05:10.482Z,58.78
2023-08-17T14:06:42.246Z,59.15
2023-08-17T14:08:13.988Z,60.52
2023-08-17T14:09:57.897Z,59.39
2023-08-17T14:11:37.409Z,60.92
2023-08-17T14:13:09.104Z,62.36
2023-08-17T14:14:40.727Z,60.94
2023-08-17T14:16:13.762Z,60.25
2023-08-17T14:17:45.527Z,60.41
2023-08-17T14:19:17.623Z,59.72
2023-08-17T14:20:49.274Z,60.29
2023-08-17T14:22:20.979Z,59.43
2023-08-17T14:23:52.718Z,60.63
2023-08-17T14:25:24.375Z,61.49
2023-08-17T14:26:57.835Z,60.20
2023-08-17T14:28:29.462Z,59.57
2023-08-17T14:30:02.786Z,60.62
2023-08-17T14:31:35.774Z,61.07
2023-08-17T14:33:07.815Z,60.84
2023-08-17T14:34:39.569Z,61.44
2023-08-17T14:36:11.198Z,61.52
2023-08-17T14:37:42.877Z,60.99
2023-08-17T14:39:14.586Z,61.31
2023-08-17T14:40:46.973Z,60.52
2023-08-17T14:42:18.618Z,52.58
2023-08-17T14:43:50.291Z,50.32
2023-08-17T14:45:21.983Z,50.58
2023-08-17T14:46:54.998Z,53.15
2023-08-17T14:48:26.977Z,58.84
2023-08-17T14:49:58.769Z,60.34
2023-08-17T14:51:31.449Z,61.77
2023-08-17T14:53:03.983Z,62.65
2023-08-17T14:54:35.729Z,63.27
2023-08-17T14:56:07.439Z,64.98
2023-08-17T14:57:39.151Z,64.53
2023-08-17T14:59:11.153Z,63.45
2023-08-17T15:00:42.812Z,63.71
2023-08-17T15:03:52.746Z,63.87
2023-08-17T15:05:28.884Z,64.03
2023-08-17T15:07:00.935Z,64.56
2023-08-17T15:08:33.229Z,64.97
2023-08-17T15:10:05.529Z,65.02
2023-08-17T15:11:37.328Z,65.14
2023-08-17T15:13:11.360Z,65.14
2023-08-17T15:14:43.324Z,64.98
2023-08-17T15:16:15.009Z,63.93
2023-08-17T15:17:48.017Z,62.31
2023-08-17T15:19:34.494Z,62.48
2023-08-17T15:21:11.343Z,61.77
2023-08-17T15:22:43.030Z,55.62
2023-08-17T15:24:14.648Z,57.17
2023-08-17T15:25:46.562Z,55.32
2023-08-17T15:27:18.237Z,55.46
2023-08-17T15:28:49.934Z,56.55
2023-08-17T15:30:21.610Z,58.32
2023-08-17T15:31:53.220Z,56.72
2023-08-17T15:33:26.225Z,54.88
2023-08-17T15:34:58.184Z,56.37
2023-08-17T15:36:29.841Z,55.09
2023-08-17T15:38:01.476Z,56.48
2023-08-17T15:39:33.164Z,56.26
2023-08-17T15:41:04.949Z,56.98
2023-08-17T15:42:36.630Z,55.34
2023-08-17T15:44:08.289Z,56.48
2023-08-17T15:45:41.411Z,60.38
2023-08-17T15:47:13.195Z,58.74
2023-08-17T15:48:46.309Z,57.85
2023-08-17T15:50:19.228Z,57.18
2023-08-17T15:51:50.880Z,59.52
2023-08-17T15:53:22.671Z,58.57
2023-08-17T15:54:54.344Z,60.51
2023-08-17T15:56:26.034Z,59.78
2023-08-17T15:57:57.640Z,60.56
2023-08-17T15:59:29.356Z,60.71
2023-08-17T16:01:01.006Z,60.56
2023-08-17T16:02:32.732Z,60.99
2023-08-17T16:04:05.832Z,61.77
2023-08-17T16:05:37.539Z,61.28
2023-08-17T16:07:09.196Z,62.45
2023-08-17T16:08:49.142Z,63.47
2023-08-17T16:10:21.560Z,64.06
2023-08-17T16:11:54.297Z,63.60
2023-08-17T16:13:25.966Z,62.54
2023-08-17T16:14:57.874Z,62.80
2023-08-17T16:16:29.586Z,61.88
2023-08-17T16:18:01.957Z,62.17
2023-08-17T16:19:35.149Z,60.38
2023-08-17T16:21:13.858Z,61.01
2023-08-17T16:22:46.885Z,59.57
2023-08-17T16:24:18.525Z,59.82
2023-08-17T16:25:50.196Z,59.28
2023-08-17T16:27:21.915Z,59.69
2023-08-17T16:28:53.551Z,59.59
2023-08-17T16:30:25.226Z,57.36
2023-08-17T16:32:00.849Z,57.47
2023-08-17T16:33:32.586Z,58.81
2023-08-17T16:35:06.654Z,57.39
2023-08-17T16:36:38.369Z,58.94
2023-08-17T16:38:12.217Z,59.25
2023-08-17T16:39:44.074Z,59.21
2023-08-17T16:41:15.703Z,58.93
2023-08-17T16:42:47.850Z,58.13
2023-08-17T16:44:20.080Z,57.03
2023-08-17T16:45:52.071Z,57.33
2023-08-17T16:47:27.575Z,57.75
2023-08-17T16:48:59.658Z,57.72
2023-08-17T16:50:34.366Z,58.15
2023-08-17T16:52:07.005Z,57.02
2023-08-17T16:53:44.015Z,57.21
2023-08-17T16:55:18.046Z,56.71
2023-08-17T16:58:24.817Z,54.71
2023-08-17T16:59:56.469Z,55.97
2023-08-17T17:01:28.181Z,57.64
2023-08-17T17:02:59.896Z,58.10
2023-08-17T17:04:31.783Z,58.61
2023-08-17T17:06:04.925Z,56.44
2023-08-17T17:07:36.674Z,56.17
2023-08-17T17:09:08.321Z,56.73
2023-08-17T17:10:39.946Z,55.10
2023-08-17T17:12:11.859Z,55.82
2023-08-17T17:13:43.484Z,56.57
2023-08-17T17:15:15.706Z,56.71
2023-08-17T17:16:47.956Z,57.49
2023-08-17T17:18:19.736Z,54.19
2023-08-17T17:19:51.508Z,54.95
2023-08-17T17:21:24.741Z,57.88
2023-08-17T17:22:58.762Z,58.49
2023-08-17T17:24:32.377Z,56.90
2023-08-17T17:26:08.665Z,56.57
2023-08-17T17:27:41.036Z,56.37
2023-08-17T17:29:12.750Z,58.06
2023-08-17T17:30:44.815Z,59.46
2023-08-17T17:32:16.543Z,59.07
2023-08-17T17:33:48.161Z,56.44
2023-08-17T17:35:19.950Z,56.21
2023-08-17T17:36:53.060Z,58.75
2023-08-17T17:38:24.733Z,55.30
2023-08-17T17:39:56.462Z,57.54
2023-08-17T17:41:28.204Z,57.06
2023-08-17T17:42:59.872Z,57.12
2023-08-17T17:44:31.510Z,57.68
2023-08-17T17:46:04.279Z,57.10
2023-08-17T17:47:36.501Z,55.97
2023-08-17T17:49:08.166Z,57.15
2023-08-17T17:50:40.183Z,57.50
2023-08-17T17:52:13.525Z,57.21
2023-08-17T17:53:45.208Z,58.29
2023-08-17T17:55:16.967Z,58.85
2023-08-17T17:56:49.707Z,58.81
2023-08-17T17:58:21.376Z,59.68
2023-08-17T17:59:53.564Z,58.29
2023-08-17T18:01:25.241Z,59.25
2023-08-17T18:03:09.168Z,59.60
2023-08-17T18:04:42.080Z,59.74
2023-08-17T18:06:13.860Z,60.05
2023-08-17T18:07:46.937Z,60.18
2023-08-17T18:09:18.767Z,61.02
2023-08-17T18:10:50.768Z,61.51
2023-08-17T18:12:22.473Z,61.87
2023-08-17T18:13:57.062Z,62.87
2023-08-17T18:15:28.942Z,63.92
2023-08-17T18:17:01.022Z,64.83
2023-08-17T18:18:33.754Z,65.17
2023-08-17T18:20:07.942Z,65.34
2023-08-17T18:21:39.672Z,64.34
2023-08-17T18:23:12.858Z,63.94
2023-08-17T18:24:45.022Z,64.47
2023-08-17T18:26:16.830Z,64.38
2023-08-17T18:27:48.867Z,64.78
2023-08-17T18:29:20.638Z,64.92
2023-08-17T18:30:52.356Z,64.44
2023-08-17T18:32:26.181Z,64.19
2023-08-17T18:33:57.955Z,64.38
2023-08-17T18:35:30.039Z,64.23
2023-08-17T18:37:02.352Z,64.07
2023-08-17T18:38:35.324Z,64.24
2023-08-17T18:40:08.195Z,64.45
2023-08-17T18:41:39.810Z,64.50
2023-08-17T18:43:11.478Z,63.67
2023-08-17T18:44:43.657Z,64.38
2023-08-17T18:46:15.445Z,64.58
2023-08-17T18:47:50.057Z,63.77
2023-08-17T18:49:21.876Z,64.25
2023-08-17T18:50:53.723Z,64.44
2023-08-17T18:52:28.108Z,64.02
2023-08-17T18:54:02.262Z,62.94
2023-08-17T18:55:34.071Z,64.17
2023-08-17T18:57:06.009Z,64.08
2023-08-17T18:58:37.657Z,64.16
2023-08-17T19:00:13.023Z,63.66
2023-08-17T19:01:44.768Z,64.00
2023-08-17T19:03:16.525Z,63.96
2023-08-17T19:04:48.246Z,63.74
2023-08-17T19:06:19.863Z,63.63
2023-08-17T19:07:51.668Z,63.33
2023-08-17T19:09:24.777Z,63.63
2023-08-17T19:10:57.482Z,64.12
2023-08-17T19:12:29.904Z,63.81
2023-08-17T19:14:03.101Z,63.21
2023-08-17T19:15:35.046Z,63.61
2023-08-17T19:17:09.767Z,63.58
2023-08-17T19:18:44.191Z,63.85
2023-08-17T19:20:16.431Z,64.72
2023-08-17T19:21:48.153Z,63.97
2023-08-17T19:23:21.977Z,63.72
2023-08-17T19:24:55.195Z,64.43
2023-08-17T19:26:27.284Z,64.32
2023-08-17T19:27:58.998Z,64.42
2023-08-17T19:29:31.542Z,64.88
2023-08-17T19:31:03.158Z,65.08
2023-08-17T19:32:34.789Z,64.72
2023-08-17T19:34:07.812Z,65.26
2023-08-17T19:35:39.593Z,65.28
2023-08-17T19:37:11.210Z,65.35
2023-08-17T19:38:42.991Z,65.68
2023-08-17T19:40:16.205Z,65.01
2023-08-17T19:41:48.623Z,65.02
2023-08-17T19:43:20.538Z,65.45
2023-08-17T19:44:52.122Z,65.39
2023-08-17T19:46:23.831Z,65.52
2023-08-17T19:47:55.611Z,66.24
2023-08-17T19:49:27.342Z,65.25
2023-08-17T19:50:58.932Z,66.00
2023-08-17T19:52:30.545Z,66.21
2023-08-17T19:54:02.298Z,66.30
2023-08-17T19:55:35.307Z,66.42
2023-08-17T19:57:10.039Z,66.99
2023-08-17T19:58:41.830Z,66.08
2023-08-17T20:00:17.042Z,66.48
2023-08-17T20:01:54.471Z,66.84
2023-08-17T20:03:32.242Z,66.48